Airfield :
LOGIN :

Register | Disclaimer

   EN    FR    IT 

 










Legend :    VFR   Marginal VFR   IFR   Intensive IFR   Very Intensive IFR
Visi :
Ceiling :
>= 8 km
>= 3000ft
5 to 8 km
1000 to 3000 ft
1500m to 5 km
500 to 1000 ft
800 to 1500m
200 to 500 ft
< 800m
< 200 ft
Symbols :   Thunderstorms  Fog  Heavy snow  Heavy precipitations  Wind > 20 kt
SIGMETs :     Misc.  Thunderstorms  Icing  Turbulence  Mountain Waves  Volcanic Ashes






- Airport Elevation : 184 ft
- IATA code : BRU


EBBR - Bruxelles

CURRENT METAR :
  • 232020Z 21008KT 9999 BKN031 05/03 Q0993 WS R25L NOSIG

EXPIRED METARs :
  • 231950Z 19010KT 9999 -SHRA FEW014TCU BKN028 05/03 Q0993 WS R25L TEMPO 4000 SHRA
  • 231920Z 22007KT 9999 -SHRA FEW020TCU BKN031 04/03 Q0993 WS R25L TEMPO 4000 SHRA
  • 231850Z 16010KT 9999 FEW025TCU BKN031 07/03 Q0992 TEMPO 4000 SHRA
  • 231820Z 17008KT 9999 FEW025TCU SCT036 BKN049 07/03 Q0992 TEMPO 4000 SHRA
  • 231750Z 19009KT 9999 SCT032 BKN049 07/02 Q0992 NOSIG
  • 231720Z 20010KT 9999 FEW030 08/02 Q0991 NOSIG
  • 231650Z 21008KT 9999 FEW030 07/02 Q0991 NOSIG
  • 231620Z 20010KT 9999 SCT030 BKN045 08/02 Q0991 NOSIG
  • 231550Z 20012KT 9999 SCT030 BKN043 08/02 Q0991 NOSIG

TAF AMD TAF EBBR
Valid from the 23 at 18:00 until the 25 at 00:00 UTC


231847Z 2318/2424 20011KT 9999 FEW020TCU SCT030
TEMPO 2318/2321 4000 SHRA SCT020CB



MET'MAP, your aeronautical weather chart ! - Copyright ORBIFLY December 2007 - Disclaimer

ORBIFLY MET'MAP TEAM :

Programming & Development : Alexandra Zaïnal
Original concept : Baudouin d'Aumeries
Technical & hardware support : Manuel Goepfert
Assistance : Marc-Olivier Méhu




SOURCES & CREDITS :

   NOAA